DAL1164 KMCO-KLGA
Flight info
| Callsign | DAL1164 |
|---|---|
| Flight time | N/A |
| Altitude | 37000 |
| Route | FATHE4 VIYAP Q87 HURTS PROUD2 |
| Aircraft | A21N/M-SDE2E3FGHIRWXY/LB1 |
Departure
| Time | 2026-05-01 14:13 |
|---|---|
| Airport | Orlando International Airport (KMCO) |
Arrival
| Time | N/A |
|---|---|
| Airport | LaGuardia Airport (KLGA) |
| Time | Latitude | Longitude | Altitude | Speed | Heading |
|---|---|---|---|---|---|
| 2026-05-01 14:02 | 28.42939 | -81.30055 | 99 ft | 4 kts | 182° |
| 2026-05-01 14:02 | 28.42960 | -81.30054 | 99 ft | 4 kts | 172° |
| 2026-05-01 14:02 | 28.42976 | -81.30063 | 99 ft | 4 kts | 95° |
| 2026-05-01 14:03 | 28.42970 | -81.30089 | 100 ft | 4 kts | 71° |
| 2026-05-01 14:03 | 28.42968 | -81.30097 | 99 ft | 1 kts | 71° |
| 2026-05-01 14:08 | 28.42977 | -81.30050 | 101 ft | 8 kts | 94° |
| 2026-05-01 14:08 | 28.42959 | -81.29976 | 101 ft | 12 kts | 117° |
| 2026-05-01 14:08 | 28.42918 | -81.29882 | 102 ft | 14 kts | 116° |
| 2026-05-01 14:08 | 28.42966 | -81.29801 | 101 ft | 16 kts | 0° |
| 2026-05-01 14:09 | 28.43077 | -81.29801 | 102 ft | 17 kts | 0° |
| 2026-05-01 14:09 | 28.43200 | -81.29800 | 102 ft | 18 kts | 0° |
| 2026-05-01 14:09 | 28.43333 | -81.29801 | 102 ft | 20 kts | 359° |
| 2026-05-01 14:09 | 28.43418 | -81.29806 | 101 ft | 1 kts | 5° |
| 2026-05-01 14:10 | 28.43434 | -81.29806 | 100 ft | 4 kts | 358° |
| 2026-05-01 14:10 | 28.43469 | -81.29807 | 101 ft | 6 kts | 359° |
| 2026-05-01 14:10 | 28.43518 | -81.29801 | 100 ft | 9 kts | 20° |
| 2026-05-01 14:10 | 28.43549 | -81.29740 | 100 ft | 11 kts | 91° |
| 2026-05-01 14:11 | 28.43552 | -81.29648 | 101 ft | 13 kts | 88° |
| 2026-05-01 14:11 | 28.43507 | -81.29584 | 102 ft | 0 kts | 176° |
| 2026-05-01 14:12 | 28.43260 | -81.29582 | 104 ft | 73 kts | 181° |
| 2026-05-01 14:13 | 28.42516 | -81.29580 | 102 ft | 138 kts | 179° |
| 2026-05-01 14:13 | 28.41394 | -81.29568 | 178 ft | 176 kts | 180° |
| 2026-05-01 14:13 | 28.40158 | -81.29534 | 727 ft | 178 kts | 183° |
| 2026-05-01 14:13 | 28.38905 | -81.29569 | 1216 ft | 187 kts | 181° |
| 2026-05-01 14:14 | 28.37594 | -81.29281 | 1710 ft | 198 kts | 160° |
| 2026-05-01 14:14 | 28.36294 | -81.28612 | 2207 ft | 208 kts | 162° |
| 2026-05-01 14:14 | 28.34967 | -81.27945 | 2574 ft | 219 kts | 148° |
| 2026-05-01 14:14 | 28.33659 | -81.26895 | 3046 ft | 237 kts | 140° |
| 2026-05-01 14:15 | 28.32466 | -81.25568 | 3640 ft | 252 kts | 134° |
| 2026-05-01 14:15 | 28.31330 | -81.23956 | 4339 ft | 264 kts | 118° |
| 2026-05-01 14:15 | 28.30846 | -81.21977 | 5155 ft | 268 kts | 93° |
| 2026-05-01 14:15 | 28.31146 | -81.19883 | 5961 ft | 272 kts | 69° |
| 2026-05-01 14:16 | 28.31998 | -81.17985 | 6666 ft | 278 kts | 53° |
| 2026-05-01 14:16 | 28.33421 | -81.16509 | 7307 ft | 280 kts | 26° |
| 2026-05-01 14:16 | 28.35263 | -81.15866 | 7964 ft | 277 kts | 359° |
| 2026-05-01 14:16 | 28.37162 | -81.16096 | 8650 ft | 275 kts | 342° |
| 2026-05-01 14:17 | 28.39021 | -81.16649 | 9368 ft | 277 kts | 340° |
| 2026-05-01 14:17 | 28.40888 | -81.17215 | 10085 ft | 280 kts | 340° |
| 2026-05-01 14:17 | 28.42822 | -81.17774 | 10509 ft | 295 kts | 340° |
| 2026-05-01 14:17 | 28.44875 | -81.18352 | 10790 ft | 313 kts | 341° |
| 2026-05-01 14:18 | 28.47060 | -81.18955 | 11037 ft | 332 kts | 341° |
| 2026-05-01 14:18 | 28.49375 | -81.19580 | 11278 ft | 350 kts | 342° |
| 2026-05-01 14:18 | 28.51785 | -81.20223 | 11706 ft | 360 kts | 342° |
| 2026-05-01 14:18 | 28.53356 | -81.20640 | 12131 ft | 362 kts | 342° |
| 2026-05-01 14:19 | 28.56665 | -81.21526 | 13121 ft | 364 kts | 341° |
| 2026-05-01 14:19 | 28.59108 | -81.22182 | 13868 ft | 365 kts | 341° |
| 2026-05-01 14:19 | 28.61497 | -81.22819 | 14479 ft | 367 kts | 342° |
| 2026-05-01 14:19 | 28.63879 | -81.23451 | 15070 ft | 370 kts | 341° |
| 2026-05-01 14:20 | 28.65560 | -81.23899 | 15463 ft | 372 kts | 341° |
| 2026-05-01 14:20 | 28.70637 | -81.25250 | 16695 ft | 377 kts | 341° |
| 2026-05-01 14:20 | 28.73191 | -81.25928 | 17328 ft | 379 kts | 341° |
| 2026-05-01 14:21 | 28.75769 | -81.26611 | 17965 ft | 381 kts | 341° |
| 2026-05-01 14:21 | 28.78354 | -81.27293 | 18564 ft | 382 kts | 341° |
| 2026-05-01 14:21 | 28.80948 | -81.27975 | 19129 ft | 383 kts | 341° |
| 2026-05-01 14:22 | 28.86155 | -81.29334 | 20299 ft | 383 kts | 341° |
| 2026-05-01 14:22 | 28.88763 | -81.30010 | 20899 ft | 383 kts | 341° |
| 2026-05-01 14:22 | 28.91361 | -81.30679 | 21510 ft | 382 kts | 341° |
| 2026-05-01 14:22 | 28.93950 | -81.31341 | 22134 ft | 382 kts | 342° |
| 2026-05-01 14:23 | 28.96656 | -81.31583 | 22427 ft | 401 kts | 358° |
| 2026-05-01 14:23 | 28.99473 | -81.31423 | 22636 ft | 408 kts | 354° |
| 2026-05-01 14:23 | 29.02350 | -81.31439 | 22815 ft | 418 kts | 353° |
| 2026-05-01 14:23 | 29.05281 | -81.31464 | 22972 ft | 428 kts | 354° |
| 2026-05-01 14:24 | 29.08297 | -81.31459 | 23208 ft | 435 kts | 354° |
| 2026-05-01 14:24 | 29.11352 | -81.31481 | 23563 ft | 437 kts | 352° |
| 2026-05-01 14:24 | 29.14400 | -81.31654 | 23891 ft | 440 kts | 351° |
| 2026-05-01 14:24 | 29.17429 | -81.31838 | 24226 ft | 442 kts | 351° |
| 2026-05-01 14:25 | 29.20508 | -81.32023 | 24582 ft | 444 kts | 351° |
| 2026-05-01 14:25 | 29.23604 | -81.32209 | 24913 ft | 446 kts | 351° |
| 2026-05-01 14:25 | 29.26750 | -81.32396 | 25243 ft | 449 kts | 351° |
| 2026-05-01 14:25 | 29.29864 | -81.32587 | 25572 ft | 451 kts | 351° |
| 2026-05-01 14:26 | 29.33005 | -81.32784 | 25918 ft | 453 kts | 351° |
| 2026-05-01 14:26 | 29.39334 | -81.33162 | 26570 ft | 458 kts | 351° |
| 2026-05-01 14:26 | 29.42521 | -81.33351 | 26913 ft | 460 kts | 351° |
| 2026-05-01 14:27 | 29.45721 | -81.33543 | 27236 ft | 462 kts | 351° |
| 2026-05-01 14:27 | 29.48989 | -81.33740 | 27573 ft | 464 kts | 351° |
| 2026-05-01 14:27 | 29.52227 | -81.33940 | 27890 ft | 466 kts | 351° |
| 2026-05-01 14:28 | 29.58743 | -81.34333 | 28546 ft | 469 kts | 351° |
| 2026-05-01 14:28 | 29.61968 | -81.34527 | 28954 ft | 468 kts | 351° |
| 2026-05-01 14:28 | 29.65215 | -81.34721 | 29376 ft | 467 kts | 351° |
| 2026-05-01 14:28 | 29.68393 | -81.34902 | 29770 ft | 467 kts | 351° |
| 2026-05-01 14:29 | 29.71633 | -81.35085 | 30165 ft | 466 kts | 351° |
| 2026-05-01 14:29 | 29.74879 | -81.35269 | 30527 ft | 464 kts | 351° |
| 2026-05-01 14:30 | 29.84509 | -81.35831 | 31580 ft | 460 kts | 350° |
| 2026-05-01 14:30 | 29.87741 | -81.36022 | 31911 ft | 459 kts | 350° |
| 2026-05-01 14:30 | 29.90920 | -81.36203 | 32234 ft | 457 kts | 350° |
| 2026-05-01 14:31 | 29.97235 | -81.36553 | 32855 ft | 455 kts | 350° |
| 2026-05-01 14:31 | 30.00388 | -81.36734 | 33141 ft | 453 kts | 350° |
| 2026-05-01 14:31 | 30.03540 | -81.36917 | 33426 ft | 452 kts | 350° |
| 2026-05-01 14:31 | 30.06672 | -81.37099 | 33705 ft | 451 kts | 350° |
| 2026-05-01 14:32 | 30.09810 | -81.37277 | 33983 ft | 450 kts | 350° |
| 2026-05-01 14:32 | 30.12934 | -81.37454 | 34215 ft | 449 kts | 349° |
| 2026-05-01 14:32 | 30.16052 | -81.37637 | 34456 ft | 447 kts | 349° |
| 2026-05-01 14:32 | 30.19153 | -81.37820 | 34688 ft | 445 kts | 349° |
| 2026-05-01 14:33 | 30.22235 | -81.38000 | 34924 ft | 443 kts | 349° |
| 2026-05-01 14:33 | 30.25316 | -81.38179 | 35155 ft | 441 kts | 349° |
| 2026-05-01 14:33 | 30.28373 | -81.38354 | 35372 ft | 439 kts | 349° |
| 2026-05-01 14:33 | 30.31424 | -81.38530 | 35585 ft | 438 kts | 348° |
| 2026-05-01 14:34 | 30.34461 | -81.38704 | 35790 ft | 436 kts | 348° |
| 2026-05-01 14:34 | 30.37491 | -81.38877 | 35989 ft | 435 kts | 348° |
| 2026-05-01 14:34 | 30.40494 | -81.39050 | 36165 ft | 433 kts | 348° |
| 2026-05-01 14:34 | 30.43508 | -81.39226 | 36330 ft | 432 kts | 348° |
| 2026-05-01 14:35 | 30.46471 | -81.39400 | 36501 ft | 431 kts | 348° |
| 2026-05-01 14:35 | 30.49467 | -81.39561 | 36655 ft | 430 kts | 348° |
| 2026-05-01 14:35 | 30.52445 | -81.39716 | 36835 ft | 429 kts | 348° |
| 2026-05-01 14:35 | 30.55406 | -81.39870 | 36985 ft | 428 kts | 348° |
| 2026-05-01 14:36 | 30.58368 | -81.40025 | 37015 ft | 427 kts | 348° |
| 2026-05-01 14:36 | 30.63340 | -81.40291 | 36993 ft | 425 kts | 347° |
| 2026-05-01 14:37 | 30.70219 | -81.40656 | 36982 ft | 426 kts | 347° |
| 2026-05-01 14:37 | 30.76148 | -81.40966 | 36977 ft | 425 kts | 347° |
| 2026-05-01 14:38 | 30.82048 | -81.41283 | 36971 ft | 425 kts | 347° |
| 2026-05-01 14:38 | 30.87952 | -81.41594 | 36964 ft | 426 kts | 347° |
| 2026-05-01 14:39 | 30.93858 | -81.41910 | 36958 ft | 424 kts | 347° |
| 2026-05-01 14:39 | 30.99756 | -81.42227 | 36965 ft | 424 kts | 347° |
| 2026-05-01 14:40 | 31.05633 | -81.42542 | 36964 ft | 423 kts | 347° |
| 2026-05-01 14:40 | 31.11514 | -81.42861 | 36966 ft | 423 kts | 347° |
| 2026-05-01 14:41 | 31.17360 | -81.43172 | 36962 ft | 422 kts | 347° |
| 2026-05-01 14:41 | 31.23246 | -81.43386 | 36980 ft | 430 kts | 352° |
| 2026-05-01 14:41 | 31.26253 | -81.42857 | 36975 ft | 446 kts | 4° |
| 2026-05-01 14:42 | 31.29234 | -81.41564 | 36982 ft | 462 kts | 13° |
| 2026-05-01 14:42 | 31.35066 | -81.38359 | 36989 ft | 465 kts | 15° |
| 2026-05-01 14:43 | 31.39909 | -81.35663 | 36986 ft | 463 kts | 14° |
| 2026-05-01 14:43 | 31.45739 | -81.32478 | 36985 ft | 463 kts | 14° |
| 2026-05-01 14:44 | 31.51580 | -81.29295 | 36958 ft | 462 kts | 14° |
| 2026-05-01 14:44 | 31.60332 | -81.24534 | 36948 ft | 462 kts | 13° |
| 2026-05-01 14:45 | 31.69069 | -81.19770 | 36940 ft | 462 kts | 13° |
| 2026-05-01 14:46 | 31.74897 | -81.16582 | 36938 ft | 462 kts | 13° |
| 2026-05-01 14:46 | 31.83617 | -81.11810 | 36932 ft | 461 kts | 13° |
| 2026-05-01 14:47 | 31.89438 | -81.08616 | 36933 ft | 462 kts | 13° |
| 2026-05-01 14:48 | 31.98176 | -81.03811 | 36934 ft | 461 kts | 13° |
| 2026-05-01 14:48 | 32.06908 | -80.98952 | 36933 ft | 463 kts | 13° |
| 2026-05-01 14:49 | 32.18546 | -80.92440 | 36968 ft | 463 kts | 13° |
| 2026-05-01 14:50 | 32.29991 | -80.86005 | 36980 ft | 462 kts | 13° |
| 2026-05-01 14:51 | 32.38718 | -80.81095 | 36982 ft | 461 kts | 13° |
| 2026-05-01 14:52 | 32.47404 | -80.76187 | 36995 ft | 461 kts | 13° |
| 2026-05-01 14:53 | 32.56124 | -80.71262 | 36990 ft | 460 kts | 12° |
| 2026-05-01 14:53 | 32.61885 | -80.68006 | 36987 ft | 460 kts | 12° |
| 2026-05-01 14:54 | 32.67659 | -80.64727 | 36986 ft | 460 kts | 12° |
| 2026-05-01 14:54 | 32.73408 | -80.61440 | 37005 ft | 461 kts | 13° |
| 2026-05-01 14:55 | 32.79156 | -80.58005 | 37016 ft | 463 kts | 13° |
| 2026-05-01 14:55 | 32.84867 | -80.54596 | 37024 ft | 462 kts | 13° |
| 2026-05-01 14:56 | 32.90597 | -80.51180 | 37018 ft | 462 kts | 13° |
| 2026-05-01 14:56 | 32.96335 | -80.47764 | 37039 ft | 462 kts | 13° |
| 2026-05-01 14:57 | 33.02065 | -80.44358 | 37007 ft | 463 kts | 13° |
| 2026-05-01 14:57 | 33.10687 | -80.39196 | 37008 ft | 464 kts | 13° |
| 2026-05-01 14:58 | 33.16462 | -80.35737 | 37003 ft | 464 kts | 13° |
| 2026-05-01 14:58 | 33.22230 | -80.32280 | 37001 ft | 464 kts | 13° |
| 2026-05-01 14:59 | 33.27999 | -80.28805 | 37002 ft | 464 kts | 13° |
| 2026-05-01 14:59 | 33.33766 | -80.25343 | 37012 ft | 464 kts | 13° |
| 2026-05-01 15:00 | 33.42430 | -80.20118 | 37010 ft | 465 kts | 13° |
| 2026-05-01 15:01 | 33.48174 | -80.16648 | 37058 ft | 464 kts | 13° |
| 2026-05-01 15:01 | 33.53952 | -80.13156 | 37040 ft | 465 kts | 13° |
| 2026-05-01 15:02 | 33.59740 | -80.09654 | 37037 ft | 465 kts | 13° |
| 2026-05-01 15:02 | 33.65525 | -80.06140 | 37027 ft | 464 kts | 12° |
| 2026-05-01 15:03 | 33.71300 | -80.02610 | 37047 ft | 466 kts | 13° |
| 2026-05-01 15:03 | 33.77052 | -79.99042 | 37052 ft | 466 kts | 13° |
| 2026-05-01 15:04 | 33.82843 | -79.95526 | 37047 ft | 465 kts | 12° |
| 2026-05-01 15:04 | 33.88588 | -79.92043 | 37039 ft | 466 kts | 13° |
| 2026-05-01 15:05 | 33.94371 | -79.88528 | 37032 ft | 465 kts | 12° |
| 2026-05-01 15:05 | 34.00157 | -79.85026 | 37043 ft | 466 kts | 12° |
| 2026-05-01 15:06 | 34.05945 | -79.81488 | 37053 ft | 467 kts | 12° |
| 2026-05-01 15:06 | 34.11778 | -79.77910 | 37056 ft | 467 kts | 12° |
| 2026-05-01 15:07 | 34.17539 | -79.74370 | 37061 ft | 468 kts | 12° |
| 2026-05-01 15:07 | 34.23380 | -79.70769 | 37066 ft | 469 kts | 12° |
| 2026-05-01 15:08 | 34.29192 | -79.67177 | 37062 ft | 470 kts | 12° |
| 2026-05-01 15:08 | 34.35024 | -79.63582 | 37059 ft | 470 kts | 12° |
| 2026-05-01 15:09 | 34.40859 | -79.59975 | 37068 ft | 471 kts | 12° |
| 2026-05-01 15:09 | 34.46701 | -79.56353 | 37073 ft | 472 kts | 12° |
| 2026-05-01 15:10 | 34.52507 | -79.52746 | 37076 ft | 472 kts | 12° |
| 2026-05-01 15:10 | 34.61227 | -79.47014 | 37095 ft | 477 kts | 14° |
| 2026-05-01 15:11 | 34.69991 | -79.41113 | 37103 ft | 477 kts | 14° |
| 2026-05-01 15:12 | 34.75849 | -79.37162 | 37107 ft | 478 kts | 14° |
| 2026-05-01 15:12 | 34.83598 | -79.31899 | 37101 ft | 479 kts | 14° |
| 2026-05-01 15:14 | 34.98157 | -79.22011 | 37093 ft | 479 kts | 14° |
| 2026-05-01 15:14 | 35.06867 | -79.16079 | 37096 ft | 479 kts | 14° |
| 2026-05-01 15:15 | 35.18507 | -79.08112 | 37097 ft | 479 kts | 14° |
| 2026-05-01 15:16 | 35.30082 | -79.00180 | 37095 ft | 480 kts | 14° |
| 2026-05-01 15:18 | 35.44654 | -78.90139 | 37112 ft | 480 kts | 14° |
| 2026-05-01 15:19 | 35.56314 | -78.82083 | 37112 ft | 482 kts | 15° |
| 2026-05-01 15:19 | 35.64741 | -78.76210 | 37088 ft | 483 kts | 14° |
| 2026-05-01 15:20 | 35.73569 | -78.70120 | 37090 ft | 484 kts | 15° |
| 2026-05-01 15:21 | 35.79444 | -78.66024 | 37089 ft | 485 kts | 15° |
| 2026-05-01 15:21 | 35.85326 | -78.61913 | 37086 ft | 486 kts | 15° |
| 2026-05-01 15:22 | 35.94151 | -78.55747 | 37084 ft | 486 kts | 15° |
| 2026-05-01 15:22 | 36.00041 | -78.51631 | 37110 ft | 487 kts | 15° |
| 2026-05-01 15:23 | 36.05941 | -78.47477 | 37122 ft | 487 kts | 15° |
| 2026-05-01 15:23 | 36.11864 | -78.43316 | 37120 ft | 487 kts | 15° |
| 2026-05-01 15:24 | 36.17759 | -78.39169 | 37116 ft | 487 kts | 15° |
| 2026-05-01 15:24 | 36.23653 | -78.35000 | 37099 ft | 487 kts | 15° |
| 2026-05-01 15:25 | 36.29528 | -78.30845 | 37096 ft | 487 kts | 15° |
| 2026-05-01 15:25 | 36.35392 | -78.26699 | 37091 ft | 488 kts | 15° |
| 2026-05-01 15:26 | 36.38259 | -78.24372 | 37084 ft | 505 kts | 25° |
| 2026-05-01 15:26 | 36.40950 | -78.21437 | 37094 ft | 516 kts | 31° |
| 2026-05-01 15:26 | 36.46126 | -78.15251 | 37111 ft | 517 kts | 32° |
| 2026-05-01 15:27 | 36.51312 | -78.09095 | 37119 ft | 516 kts | 31° |
| 2026-05-01 15:28 | 36.59113 | -77.99920 | 37153 ft | 515 kts | 31° |
| 2026-05-01 15:28 | 36.64344 | -77.93735 | 37154 ft | 516 kts | 31° |
| 2026-05-01 15:29 | 36.72136 | -77.84491 | 37113 ft | 515 kts | 31° |
| 2026-05-01 15:30 | 36.82466 | -77.72224 | 37102 ft | 516 kts | 31° |
| 2026-05-01 15:31 | 36.97924 | -77.53779 | 37095 ft | 516 kts | 31° |
| 2026-05-01 15:32 | 37.08257 | -77.41379 | 37102 ft | 517 kts | 32° |
| 2026-05-01 15:34 | 37.23833 | -77.22622 | 37096 ft | 518 kts | 32° |